Terminal Aerodrome Forecast
Issued by NWS Jackson, MS

Home | Current Version | Previous Version | Text Only | Print | Product List | Glossary On
Versions: 1 2 3 4 5 6 7 8 9 10 11 12 13 14 15 16 17 18 19 20 21
983
FTUS44 KJAN 161120
TAFGLH
TAF
KGLH 161120Z 1612/1712 11006KT P6SM OVC010
     FM161500 16010KT P6SM SCT015 OVC025
     FM161900 17013G20KT P6SM OVC040
     FM170300 16010KT P6SM VCSH BKN015 OVC025
     FM170700 18010KT P6SM RA OVC010=

USA.gov is the U.S. government's official web portal to all federal, state and local government web resources and services.